Terminal Aerodrome Forecast
Issued by NWS Atlanta, GA

Home | Current Version | Previous Version | Text Only | Print | Product List | Glossary On
Versions: 1 2 3 4 5 6 7 8 9 10 11 12 13 14 15 16 17 18 19 20 21 22 23 24 25 26 27 28 29 30 31 32 33 34 35 36 37 38
000
FTUS42 KFFC 291128
TAFATL
TAF
KATL 291128Z 2912/3018 36003KT P6SM SCT250
     FM291300 04004KT P6SM SCT250
     FM291600 32005KT P6SM FEW045
     FM292000 24006KT P6SM FEW045
     FM300100 19003KT P6SM FEW250
     FM301000 15003KT P6SM SCT250
     FM301500 19006KT P6SM BKN035=

USA.gov is the U.S. government's official web portal to all federal, state and local government web resources and services.